MMHO/HMO METAR and TAF weather

Enter ICAO airport designator
Station Type Date Time Source
MMHO METAR 2020/09/27 00:40 UTC NOAA

MMHO 270040Z 24007KT 10SM SKC 38/18 A2980


Station Type Date Time Source
MMHO Decoded METAR 2020/09/27 00:40 UTC NOAA

Hermosillo, Son., Mexico (MMHO) 29-04N 110-57W
Sep 26, 2020 - 08:40 PM EDT / 2020.09.27 0040 UTC
Wind: from the WSW (240 degrees) at 8 MPH (7 KT):0
Visibility: 10 mile(s):0
Sky conditions: clear
Temperature: 100 F (38 C)
Heat index: 102.9 F (39.4 C):1
Dew Point: 64 F (18 C)
Relative Humidity: 31%
Pressure (altimeter): 29.8 in. Hg (1009 hPa)
ob: MMHO 270040Z 24007KT 10SM SKC 38/18 A2980
cycle: 0

Station Type Date Time Source
MMHO TAF 2020/09/26 18:28 UTC NOAA

TAF MMHO 261721Z 2618/2718 24008KT P6SM SKC
FM270400 00000KT P6SM SKC
FM271600 20006KT P6SM SKC

Example: see airport list